createdAt,value
2018-07-21T00:00:32.018Z,0.00
2018-07-21T00:01:31.941Z,0.00
2018-07-21T00:02:31.865Z,0.00
2018-07-21T00:03:31.777Z,0.00
2018-07-21T00:04:31.716Z,0.00
2018-07-21T00:05:31.629Z,0.00
2018-07-21T00:06:31.546Z,0.00
2018-07-21T00:07:31.494Z,0.00
2018-07-21T00:08:31.393Z,0.00
2018-07-21T00:09:31.316Z,0.00
2018-07-21T00:10:31.228Z,0.00
2018-07-21T00:11:31.152Z,0.00
2018-07-21T00:12:31.077Z,0.00
2018-07-21T00:13:30.993Z,0.00
2018-07-21T00:14:30.918Z,0.00
2018-07-21T00:15:30.848Z,0.00
2018-07-21T00:16:30.758Z,0.00
2018-07-21T00:17:30.678Z,0.00
2018-07-21T00:18:30.617Z,0.00
2018-07-21T00:19:30.523Z,0.00
2018-07-21T00:20:30.449Z,0.00
2018-07-21T00:21:30.369Z,0.00
2018-07-21T00:22:30.293Z,0.00
2018-07-21T00:23:30.207Z,0.00
2018-07-21T00:24:30.130Z,0.00
2018-07-21T00:25:30.055Z,0.00
2018-07-21T00:26:29.967Z,0.00
2018-07-21T00:27:29.892Z,0.00
2018-07-21T00:28:29.843Z,0.00
2018-07-21T00:29:29.730Z,0.00
2018-07-21T00:30:29.654Z,0.00
2018-07-21T00:31:29.580Z,0.00
2018-07-21T00:32:29.493Z,0.00
2018-07-21T00:33:29.421Z,0.00
2018-07-21T00:34:29.349Z,0.00
2018-07-21T00:35:29.257Z,0.00
2018-07-21T00:36:29.182Z,0.00
2018-07-21T00:37:29.104Z,0.00
2018-07-21T00:38:29.019Z,0.00
2018-07-21T00:39:28.943Z,0.00
2018-07-21T00:40:28.869Z,0.00
2018-07-21T00:41:28.784Z,0.00
2018-07-21T00:42:28.708Z,0.00
2018-07-21T00:43:28.634Z,0.00
2018-07-21T00:44:28.546Z,0.00
2018-07-21T00:45:28.471Z,0.00
2018-07-21T00:46:28.439Z,0.00
2018-07-21T00:47:28.309Z,0.00
2018-07-21T00:48:28.233Z,0.00
2018-07-21T00:49:28.156Z,0.00
2018-07-21T00:50:28.082Z,0.00
2018-07-21T00:51:27.994Z,0.00
2018-07-21T00:52:27.920Z,0.00
2018-07-21T00:53:27.846Z,0.00
2018-07-21T00:54:27.759Z,0.00
2018-07-21T00:55:27.683Z,0.00
2018-07-21T00:56:27.614Z,0.00
2018-07-21T00:57:27.532Z,0.00
2018-07-21T00:58:27.445Z,0.00
2018-07-21T00:59:27.370Z,0.00
2018-07-21T01:00:27.284Z,0.00
2018-07-21T01:01:27.208Z,0.00
2018-07-21T01:02:27.132Z,0.00
2018-07-21T01:03:27.045Z,0.00
2018-07-21T01:04:26.971Z,0.00
2018-07-21T01:05:26.887Z,0.00
2018-07-21T01:06:26.810Z,0.00
2018-07-21T01:07:26.735Z,0.00
2018-07-21T01:08:26.649Z,0.00
2018-07-21T01:09:26.572Z,0.00
2018-07-21T01:10:26.496Z,0.00
2018-07-21T01:11:26.411Z,0.00
2018-07-21T01:12:26.334Z,0.00
2018-07-21T01:13:26.274Z,0.00
2018-07-21T01:14:26.174Z,0.00
2018-07-21T01:15:26.099Z,0.00
2018-07-21T01:16:26.025Z,0.00
2018-07-21T01:17:25.934Z,0.00
2018-07-21T01:18:25.873Z,0.00
2018-07-21T01:19:25.785Z,0.00
2018-07-21T01:20:25.697Z,0.00
2018-07-21T01:21:25.625Z,0.00
2018-07-21T01:22:25.550Z,0.00
2018-07-21T01:23:25.475Z,0.00
2018-07-21T01:24:25.393Z,0.00
2018-07-21T01:25:25.312Z,0.00
2018-07-21T01:26:25.226Z,0.00
2018-07-21T01:27:25.149Z,0.00
2018-07-21T01:28:25.075Z,0.00
2018-07-21T01:29:24.988Z,0.00
2018-07-21T01:30:24.917Z,0.00
2018-07-21T01:31:24.827Z,0.00
2018-07-21T01:32:24.751Z,0.00
2018-07-21T01:33:24.677Z,0.00
2018-07-21T01:34:24.589Z,0.00
2018-07-21T01:35:24.515Z,0.00
2018-07-21T01:36:24.439Z,0.00
2018-07-21T01:37:24.350Z,0.00
2018-07-21T01:38:24.276Z,0.00
2018-07-21T01:39:24.200Z,0.00
2018-07-21T01:40:24.112Z,0.00
2018-07-21T01:41:24.039Z,0.00
2018-07-21T01:42:23.970Z,0.00
2018-07-21T01:43:23.878Z,0.00
2018-07-21T01:44:23.802Z,0.00
2018-07-21T01:45:23.712Z,0.00
2018-07-21T01:46:23.638Z,0.00
2018-07-21T01:47:23.562Z,0.00
2018-07-21T01:48:23.476Z,0.00
2018-07-21T01:49:23.403Z,0.00
2018-07-21T01:50:23.327Z,0.00
2018-07-21T01:51:23.241Z,0.00
2018-07-21T01:52:23.163Z,0.00
2018-07-21T01:53:23.079Z,0.00
2018-07-21T01:54:23.004Z,0.00
2018-07-21T01:55:22.929Z,0.00
2018-07-21T01:56:22.841Z,0.00
2018-07-21T01:57:22.764Z,0.00
2018-07-21T01:58:22.689Z,0.00
2018-07-21T01:59:22.603Z,0.00
2018-07-21T02:00:22.528Z,0.00
2018-07-21T02:01:22.446Z,0.00
2018-07-21T02:02:22.366Z,0.00
2018-07-21T02:03:22.292Z,0.00
2018-07-21T02:04:22.204Z,0.00
2018-07-21T02:05:22.132Z,0.00
2018-07-21T02:06:22.055Z,0.00
2018-07-21T02:07:21.966Z,0.00
2018-07-21T02:08:21.892Z,0.00
2018-07-21T02:09:21.815Z,0.00
2018-07-21T02:10:21.729Z,0.00
2018-07-21T02:11:21.653Z,0.00
2018-07-21T02:12:21.566Z,0.00
2018-07-21T02:13:21.493Z,0.00
2018-07-21T02:14:21.417Z,0.00
2018-07-21T02:15:21.332Z,0.00
2018-07-21T02:16:21.269Z,0.00
2018-07-21T02:17:21.179Z,0.00
2018-07-21T02:18:21.092Z,0.00
2018-07-21T02:19:21.016Z,0.00
2018-07-21T02:20:20.930Z,0.00
2018-07-21T02:21:20.857Z,0.00
2018-07-21T02:22:20.782Z,0.00
2018-07-21T02:23:20.694Z,0.00
2018-07-21T02:24:20.619Z,0.00
2018-07-21T02:25:20.542Z,0.00
2018-07-21T02:26:20.454Z,0.00
2018-07-21T02:27:20.382Z,0.00
2018-07-21T02:28:20.292Z,0.00
2018-07-21T02:29:20.219Z,0.00
2018-07-21T02:30:20.146Z,0.00
2018-07-21T02:31:20.058Z,4.00
2018-07-21T02:32:19.984Z,4.00
2018-07-21T02:33:19.896Z,0.00
2018-07-21T02:34:19.834Z,0.00
2018-07-21T02:35:19.744Z,4.00
2018-07-21T02:36:19.661Z,4.00
2018-07-21T02:37:19.581Z,4.00
2018-07-21T02:38:19.505Z,4.00
2018-07-21T02:39:19.448Z,4.00
2018-07-21T02:40:19.344Z,4.00
2018-07-21T02:41:19.258Z,4.00
2018-07-21T02:42:19.189Z,4.00
2018-07-21T02:43:19.098Z,8.00
2018-07-21T02:44:19.021Z,8.00
2018-07-21T02:45:18.944Z,8.00
2018-07-21T02:46:18.859Z,12.00
2018-07-21T02:47:18.782Z,12.00
2018-07-21T02:48:18.707Z,12.00
2018-07-21T02:49:18.622Z,16.00
2018-07-21T02:50:18.559Z,20.00
2018-07-21T02:51:18.459Z,20.00
2018-07-21T02:52:18.384Z,24.00
2018-07-21T02:53:18.309Z,28.00
2018-07-21T02:54:18.222Z,32.00
2018-07-21T02:55:18.148Z,32.00
2018-07-21T02:56:18.060Z,36.00
2018-07-21T02:57:17.983Z,44.00
2018-07-21T02:58:17.909Z,44.00
2018-07-21T02:59:17.821Z,52.00
2018-07-21T03:00:17.749Z,56.00
2018-07-21T03:01:17.664Z,64.00
2018-07-21T03:02:17.586Z,68.00
2018-07-21T03:03:17.511Z,76.00
2018-07-21T03:04:17.425Z,80.00
2018-07-21T03:05:17.347Z,88.00
2018-07-21T03:06:17.274Z,92.00
2018-07-21T03:07:17.187Z,96.00
2018-07-21T03:08:17.110Z,104.00
2018-07-21T03:09:17.021Z,112.00
2018-07-21T03:10:16.947Z,116.00
2018-07-21T03:11:16.860Z,128.00
2018-07-21T03:12:16.785Z,136.00
2018-07-21T03:13:16.711Z,144.00
2018-07-21T03:14:16.624Z,152.00
2018-07-21T03:15:16.550Z,160.00
2018-07-21T03:16:16.474Z,172.00
2018-07-21T03:17:16.386Z,184.00
2018-07-21T03:18:16.311Z,196.00
2018-07-21T03:19:16.222Z,200.00
2018-07-21T03:20:16.171Z,208.00
2018-07-21T03:21:16.075Z,216.00
2018-07-21T03:22:15.995Z,224.00
2018-07-21T03:23:15.931Z,236.00
2018-07-21T03:24:15.825Z,244.00
2018-07-21T03:25:15.762Z,256.00
2018-07-21T03:26:15.675Z,268.00
2018-07-21T03:27:15.588Z,280.00
2018-07-21T03:28:15.513Z,296.00
2018-07-21T03:29:15.423Z,312.00
2018-07-21T03:30:15.362Z,328.00
2018-07-21T03:31:15.262Z,344.00
2018-07-21T03:32:15.187Z,364.00
2018-07-21T03:33:15.114Z,376.00
2018-07-21T03:34:15.027Z,392.00
2018-07-21T03:35:14.963Z,408.00
2018-07-21T03:36:14.864Z,424.00
2018-07-21T03:37:14.793Z,444.00
2018-07-21T03:38:14.712Z,464.00
2018-07-21T03:39:14.625Z,480.00
2018-07-21T03:40:14.562Z,492.00
2018-07-21T03:41:14.462Z,508.00
2018-07-21T03:42:14.388Z,524.00
2018-07-21T03:43:14.312Z,536.00
2018-07-21T03:44:14.224Z,552.00
2018-07-21T03:45:14.164Z,568.00
2018-07-21T03:46:14.077Z,588.00
2018-07-21T03:47:13.990Z,612.00
2018-07-21T03:48:13.915Z,636.00
2018-07-21T03:49:13.828Z,672.00
2018-07-21T03:50:13.750Z,708.00
2018-07-21T03:51:13.663Z,752.00
2018-07-21T03:52:13.592Z,780.00
2018-07-21T03:53:13.516Z,812.00
2018-07-21T03:54:13.428Z,844.00
2018-07-21T03:55:13.401Z,876.00
2018-07-21T03:56:13.266Z,888.00
2018-07-21T03:57:13.191Z,892.00
2018-07-21T03:58:13.118Z,884.00
2018-07-21T03:59:13.028Z,892.00
2018-07-21T04:00:12.953Z,916.00
2018-07-21T04:01:12.865Z,932.00
2018-07-21T04:02:12.790Z,940.00
2018-07-21T04:03:12.703Z,936.00
2018-07-21T04:04:12.627Z,940.00
2018-07-21T04:05:12.554Z,936.00
2018-07-21T04:06:12.467Z,940.00
2018-07-21T04:07:12.393Z,940.00
2018-07-21T04:08:12.306Z,932.00
2018-07-21T04:09:12.227Z,920.00
2018-07-21T04:10:12.153Z,904.00
2018-07-21T04:11:12.066Z,896.00
2018-07-21T04:12:11.992Z,900.00
2018-07-21T04:13:11.905Z,912.00
2018-07-21T04:14:11.828Z,932.00
2018-07-21T04:15:11.753Z,960.00
2018-07-21T04:16:11.667Z,996.00
2018-07-21T04:17:11.595Z,1032.00
2018-07-21T04:18:11.508Z,1068.00
2018-07-21T04:19:11.432Z,1100.00
2018-07-21T04:20:11.360Z,1128.00
2018-07-21T04:21:11.268Z,1152.00
2018-07-21T04:22:11.195Z,1172.00
2018-07-21T04:23:11.106Z,1208.00
2018-07-21T04:24:11.069Z,1256.00
2018-07-21T04:25:10.958Z,1308.00
2018-07-21T04:26:10.871Z,1348.00
2018-07-21T04:27:10.795Z,1384.00
2018-07-21T04:28:10.724Z,1416.00
2018-07-21T04:29:10.631Z,1444.00
2018-07-21T04:30:10.555Z,1468.00
2018-07-21T04:31:10.476Z,1508.00
2018-07-21T04:32:10.393Z,1552.00
2018-07-21T04:33:10.320Z,1592.00
2018-07-21T04:34:10.245Z,1620.00
2018-07-21T04:35:10.159Z,1660.00
2018-07-21T04:36:10.073Z,1712.00
2018-07-21T04:37:09.995Z,1784.00
2018-07-21T04:38:09.921Z,1872.00
2018-07-21T04:39:09.843Z,1960.00
2018-07-21T04:40:09.757Z,1988.00
2018-07-21T04:41:09.684Z,2068.00
2018-07-21T04:42:09.596Z,2156.00
2018-07-21T04:43:09.527Z,2212.00
2018-07-21T04:44:09.447Z,2228.00
2018-07-21T04:45:09.359Z,2212.00
2018-07-21T04:46:09.283Z,2244.00
2018-07-21T04:47:09.197Z,2316.00
2018-07-21T04:48:09.122Z,2384.00
2018-07-21T04:49:09.045Z,2412.00
2018-07-21T04:50:08.956Z,2416.00
2018-07-21T04:51:08.882Z,2404.00
2018-07-21T04:52:08.809Z,2376.00
2018-07-21T04:53:08.725Z,2396.00
2018-07-21T04:54:08.649Z,2436.00
2018-07-21T04:55:08.560Z,2464.00
2018-07-21T04:56:08.485Z,2480.00
2018-07-21T04:57:08.408Z,2480.00
2018-07-21T04:58:08.349Z,2496.00
2018-07-21T04:59:08.245Z,2524.00
2018-07-21T05:00:08.171Z,2540.00
2018-07-21T05:01:08.138Z,2544.00
2018-07-21T05:02:08.008Z,2564.00
2018-07-21T05:03:07.933Z,2612.00
2018-07-21T05:04:07.858Z,2648.00
2018-07-21T05:05:07.773Z,2692.00
2018-07-21T05:06:07.699Z,2724.00
2018-07-21T05:07:07.624Z,2748.00
2018-07-21T05:08:07.537Z,2768.00
2018-07-21T05:09:07.459Z,2784.00
2018-07-21T05:10:07.384Z,2796.00
2018-07-21T05:11:07.358Z,2816.00
2018-07-21T05:12:07.222Z,2832.00
2018-07-21T05:13:07.150Z,2848.00
2018-07-21T05:14:07.074Z,2852.00
2018-07-21T05:15:06.988Z,2848.00
2018-07-21T05:16:06.911Z,2840.00
2018-07-21T05:17:06.836Z,2844.00
2018-07-21T05:18:06.764Z,2844.00
2018-07-21T05:19:06.679Z,2848.00
2018-07-21T05:20:06.615Z,2876.00
2018-07-21T05:21:06.523Z,2884.00
2018-07-21T05:22:06.448Z,2916.00
2018-07-21T05:23:06.361Z,2964.00
2018-07-21T05:24:06.286Z,3000.00
2018-07-21T05:25:06.212Z,3048.00
2018-07-21T05:26:06.137Z,3068.00
2018-07-21T05:27:06.062Z,3092.00
2018-07-21T05:28:05.975Z,3124.00
2018-07-21T05:29:05.903Z,3140.00
2018-07-21T05:30:05.826Z,3148.00
2018-07-21T05:31:05.737Z,3160.00
2018-07-21T05:32:05.663Z,3188.00
2018-07-21T05:33:05.588Z,3256.00
2018-07-21T05:34:05.512Z,3336.00
2018-07-21T05:35:05.426Z,3312.00
2018-07-21T05:36:05.350Z,3260.00
2018-07-21T05:37:05.277Z,3256.00
2018-07-21T05:38:05.202Z,3256.00
2018-07-21T05:39:05.164Z,3260.00
2018-07-21T05:40:05.040Z,3260.00
2018-07-21T05:41:04.962Z,3256.00
2018-07-21T05:42:04.900Z,3264.00
2018-07-21T05:43:04.801Z,3272.00
2018-07-21T05:44:04.725Z,3280.00
2018-07-21T05:45:04.687Z,3320.00
2018-07-21T05:46:04.580Z,3332.00
2018-07-21T05:47:04.503Z,3340.00
2018-07-21T05:48:04.415Z,3356.00
2018-07-21T05:49:04.341Z,3364.00
2018-07-21T05:50:04.266Z,3380.00
2018-07-21T05:51:04.191Z,3420.00
2018-07-21T05:52:04.104Z,3476.00
2018-07-21T05:53:04.071Z,3536.00
2018-07-21T05:54:03.953Z,3516.00
2018-07-21T05:55:03.878Z,3708.00
2018-07-21T05:56:03.790Z,3616.00
2018-07-21T05:57:03.717Z,3676.00
2018-07-21T05:58:03.654Z,3652.00
2018-07-21T05:59:03.568Z,3700.00
2018-07-21T06:00:03.493Z,3656.00
2018-07-21T06:01:03.405Z,3676.00
2018-07-21T06:02:03.329Z,3708.00
2018-07-21T06:03:03.324Z,3768.00
2018-07-21T06:04:03.179Z,3840.00
2018-07-21T06:05:03.104Z,3876.00
2018-07-21T06:06:03.016Z,3920.00
2018-07-21T06:07:02.940Z,3952.00
2018-07-21T06:08:02.873Z,3992.00
2018-07-21T06:09:02.793Z,4020.00
2018-07-21T06:10:02.721Z,4104.00
2018-07-21T06:11:02.667Z,4084.00
2018-07-21T06:12:02.557Z,4076.00
2018-07-21T06:13:02.479Z,4092.00
2018-07-21T06:14:02.407Z,4108.00
2018-07-21T06:15:02.330Z,4140.00
2018-07-21T06:16:02.242Z,4156.00
2018-07-21T06:17:02.213Z,4172.00
2018-07-21T06:18:02.094Z,4168.00
2018-07-21T06:19:02.020Z,4160.00
2018-07-21T06:20:01.944Z,4152.00
2018-07-21T06:21:01.869Z,4124.00
2018-07-21T06:22:01.783Z,4132.00
2018-07-21T06:23:01.710Z,4144.00
2018-07-21T06:24:01.633Z,4164.00
2018-07-21T06:25:01.558Z,4172.00
2018-07-21T06:26:01.481Z,4204.00
2018-07-21T06:27:01.405Z,4232.00
2018-07-21T06:28:01.325Z,4252.00
2018-07-21T06:29:01.245Z,4280.00
2018-07-21T06:30:01.171Z,4304.00
2018-07-21T06:31:01.096Z,4352.00
2018-07-21T06:32:01.023Z,4376.00
2018-07-21T06:33:00.945Z,4420.00
2018-07-21T06:34:00.857Z,4452.00
2018-07-21T06:35:00.781Z,4480.00
2018-07-21T06:36:00.707Z,4516.00
2018-07-21T06:37:00.633Z,4560.00
2018-07-21T06:38:00.559Z,4640.00
2018-07-21T06:39:00.484Z,4724.00
2018-07-21T06:40:00.414Z,4784.00
2018-07-21T06:41:00.320Z,4816.00
2018-07-21T06:42:00.257Z,4840.00
2018-07-21T06:43:00.169Z,4836.00
2018-07-21T06:44:00.157Z,4820.00
2018-07-21T06:45:00.027Z,4836.00
2018-07-21T06:45:59.948Z,4876.00
2018-07-21T06:46:59.872Z,4948.00
2018-07-21T06:47:59.785Z,5012.00
2018-07-21T06:48:59.710Z,5056.00
2018-07-21T06:49:59.633Z,5100.00
2018-07-21T06:50:59.559Z,5216.00
2018-07-21T06:51:59.483Z,5348.00
2018-07-21T06:52:59.409Z,5480.00
2018-07-21T06:53:59.333Z,5540.00
2018-07-21T06:54:59.247Z,5556.00
2018-07-21T06:55:59.184Z,5644.00
2018-07-21T06:56:59.097Z,5684.00
2018-07-21T06:57:59.036Z,5748.00
2018-07-21T06:58:58.991Z,5812.00
2018-07-21T06:59:58.873Z,5888.00
2018-07-21T07:00:58.796Z,5912.00
2018-07-21T07:01:58.721Z,5992.00
2018-07-21T07:02:58.646Z,6056.00
2018-07-21T07:03:58.571Z,6168.00
2018-07-21T07:04:58.499Z,6216.00
2018-07-21T07:05:58.412Z,6328.00
2018-07-21T07:06:58.337Z,6460.00
2018-07-21T07:07:58.262Z,6588.00
2018-07-21T07:08:58.188Z,6700.00
2018-07-21T07:09:58.113Z,6784.00
2018-07-21T07:10:58.037Z,6868.00
2018-07-21T07:11:57.963Z,6908.00
2018-07-21T07:12:57.886Z,6956.00
2018-07-21T07:13:57.810Z,6988.00
2018-07-21T07:14:57.735Z,7304.00
2018-07-21T07:15:57.663Z,7452.00
2018-07-21T07:16:57.589Z,7748.00
2018-07-21T07:17:57.514Z,7564.00
2018-07-21T07:18:57.425Z,7980.00
2018-07-21T07:19:57.350Z,8896.00
2018-07-21T07:20:57.273Z,8388.00
2018-07-21T07:21:57.198Z,10084.00
2018-07-21T07:22:57.123Z,10860.00
2018-07-21T07:23:57.048Z,32000.00
2018-07-21T07:24:56.976Z,35104.00
2018-07-21T07:25:56.898Z,18240.00
2018-07-21T07:26:56.824Z,13956.00
2018-07-21T07:27:56.750Z,17792.00
2018-07-21T07:28:56.676Z,24736.00
2018-07-21T07:29:56.602Z,61536.00
2018-07-21T07:30:56.529Z,93696.00
2018-07-21T07:31:56.451Z,117216.00
2018-07-21T07:32:56.374Z,103008.00
2018-07-21T07:33:56.300Z,83552.00
2018-07-21T07:34:56.227Z,66592.00
2018-07-21T07:35:56.150Z,49312.00
2018-07-21T07:36:56.077Z,40512.00
2018-07-21T07:37:56.003Z,38464.00
2018-07-21T07:38:55.929Z,36704.00
2018-07-21T07:39:55.866Z,33920.00
2018-07-21T07:40:55.791Z,30304.00
2018-07-21T07:41:55.716Z,29184.00
2018-07-21T07:42:55.642Z,27744.00
2018-07-21T07:43:55.571Z,27296.00
2018-07-21T07:44:55.489Z,28320.00
2018-07-21T07:45:55.439Z,27232.00
2018-07-21T07:46:55.352Z,23872.00
2018-07-21T07:47:55.276Z,23104.00
2018-07-21T07:48:55.203Z,23584.00
2018-07-21T07:49:55.142Z,23008.00
2018-07-21T07:50:55.072Z,22176.00
2018-07-21T07:51:54.995Z,21408.00
2018-07-21T07:52:54.940Z,20064.00
2018-07-21T07:53:54.852Z,19552.00
2018-07-21T07:54:54.778Z,18752.00
2018-07-21T07:55:54.717Z,17664.00
2018-07-21T07:56:54.640Z,16672.00
2018-07-21T07:57:54.566Z,15508.00
2018-07-21T07:58:54.502Z,15028.00
2018-07-21T07:59:54.428Z,14668.00
2018-07-21T08:00:54.368Z,14076.00
2018-07-21T08:01:54.293Z,13224.00
2018-07-21T08:02:54.230Z,12844.00
2018-07-21T08:03:54.168Z,13100.00
2018-07-21T08:04:54.079Z,14032.00
2018-07-21T08:05:54.016Z,14416.00
2018-07-21T08:06:53.941Z,13484.00
2018-07-21T08:07:53.879Z,13140.00
2018-07-21T08:08:53.808Z,12488.00
2018-07-21T08:09:53.744Z,11400.00
2018-07-21T08:10:53.681Z,10924.00
2018-07-21T08:11:53.634Z,10684.00
2018-07-21T08:12:53.544Z,10660.00
2018-07-21T08:13:53.470Z,10592.00
2018-07-21T08:14:53.407Z,10280.00
2018-07-21T08:15:53.331Z,10156.00
2018-07-21T08:16:53.267Z,10228.00
2018-07-21T08:17:53.207Z,10212.00
2018-07-21T08:18:53.130Z,10364.00
2018-07-21T08:19:53.069Z,10536.00
2018-07-21T08:20:52.997Z,10620.00
2018-07-21T08:21:52.932Z,10648.00
2018-07-21T08:22:52.871Z,10688.00
2018-07-21T08:23:52.795Z,10752.00
2018-07-21T08:24:52.730Z,10772.00
2018-07-21T08:25:52.669Z,10880.00
2018-07-21T08:26:52.594Z,10976.00
2018-07-21T08:27:52.530Z,11024.00
2018-07-21T08:28:52.468Z,10992.00
2018-07-21T08:29:52.394Z,10956.00
2018-07-21T08:30:52.332Z,10812.00
2018-07-21T08:31:52.256Z,10428.00
2018-07-21T08:32:52.196Z,9032.00
2018-07-21T08:33:52.133Z,8920.00
2018-07-21T08:34:52.059Z,9392.00
2018-07-21T08:35:51.997Z,10104.00
2018-07-21T08:36:51.932Z,9836.00
2018-07-21T08:37:51.860Z,11096.00
2018-07-21T08:38:51.797Z,11388.00
2018-07-21T08:39:51.731Z,11628.00
2018-07-21T08:40:51.659Z,11628.00
2018-07-21T08:41:51.599Z,11656.00
2018-07-21T08:42:51.537Z,11692.00
2018-07-21T08:43:51.460Z,11796.00
2018-07-21T08:44:51.396Z,11808.00
2018-07-21T08:45:51.332Z,11816.00
2018-07-21T08:46:51.270Z,11864.00
2018-07-21T08:47:51.196Z,11860.00
2018-07-21T08:48:51.135Z,11988.00
2018-07-21T08:49:51.126Z,12144.00
2018-07-21T08:50:51.001Z,12276.00
2018-07-21T08:51:50.935Z,12424.00
2018-07-21T08:52:50.871Z,12588.00
2018-07-21T08:53:50.809Z,12736.00
2018-07-21T08:54:50.734Z,12868.00
2018-07-21T08:55:50.703Z,13016.00
2018-07-21T08:56:50.610Z,13164.00
2018-07-21T08:57:50.549Z,13308.00
2018-07-21T08:58:50.474Z,13460.00
2018-07-21T08:59:50.429Z,13596.00
2018-07-21T09:00:50.352Z,13772.00
2018-07-21T09:01:50.288Z,14068.00
2018-07-21T09:02:50.212Z,14320.00
2018-07-21T09:03:50.151Z,14496.00
2018-07-21T09:04:50.086Z,14676.00
2018-07-21T09:05:50.072Z,14908.00
2018-07-21T09:06:49.960Z,15232.00
2018-07-21T09:07:49.886Z,14944.00
2018-07-21T09:08:49.825Z,14404.00
2018-07-21T09:09:49.762Z,14188.00
2018-07-21T09:10:49.703Z,15164.00
2018-07-21T09:11:49.638Z,15904.00
2018-07-21T09:12:49.574Z,16868.00
2018-07-21T09:13:49.499Z,16764.00
2018-07-21T09:14:49.440Z,17120.00
2018-07-21T09:15:49.375Z,17376.00
2018-07-21T09:16:49.324Z,17632.00
2018-07-21T09:17:49.253Z,17920.00
2018-07-21T09:18:49.175Z,18048.00
2018-07-21T09:19:49.128Z,17312.00
2018-07-21T09:20:49.056Z,17952.00
2018-07-21T09:21:48.989Z,17952.00
2018-07-21T09:22:48.926Z,18176.00
2018-07-21T09:23:48.864Z,18496.00
2018-07-21T09:24:48.788Z,19008.00
2018-07-21T09:25:48.727Z,19456.00
2018-07-21T09:26:48.663Z,19776.00
2018-07-21T09:27:48.601Z,20960.00
2018-07-21T09:28:48.547Z,22240.00
2018-07-21T09:29:48.478Z,23040.00
2018-07-21T09:30:48.427Z,23424.00
2018-07-21T09:31:48.340Z,23904.00
2018-07-21T09:32:48.278Z,24768.00
2018-07-21T09:33:48.228Z,25504.00
2018-07-21T09:34:48.155Z,26208.00
2018-07-21T09:35:48.090Z,26016.00
2018-07-21T09:36:48.026Z,25472.00
2018-07-21T09:37:47.963Z,25696.00
2018-07-21T09:38:47.901Z,26592.00
2018-07-21T09:39:47.838Z,27232.00
2018-07-21T09:40:47.766Z,26720.00
2018-07-21T09:41:47.705Z,20096.00
2018-07-21T09:42:47.644Z,15120.00
2018-07-21T09:43:47.579Z,12164.00
2018-07-21T09:44:47.527Z,12196.00
2018-07-21T09:45:47.458Z,12256.00
2018-07-21T09:46:47.389Z,12228.00
2018-07-21T09:47:47.327Z,12812.00
2018-07-21T09:48:47.267Z,13216.00
2018-07-21T09:49:47.191Z,13048.00
2018-07-21T09:50:47.129Z,12816.00
2018-07-21T09:51:47.068Z,12284.00
2018-07-21T09:52:47.003Z,11988.00
2018-07-21T09:53:46.943Z,12100.00
2018-07-21T09:54:46.865Z,12108.00
2018-07-21T09:55:46.887Z,12320.00
2018-07-21T09:56:46.742Z,12300.00
2018-07-21T09:57:46.680Z,12284.00
2018-07-21T09:58:46.607Z,12388.00
2018-07-21T09:59:46.542Z,12416.00
2018-07-21T10:00:46.481Z,12432.00
2018-07-21T10:01:46.416Z,12712.00
2018-07-21T10:02:46.341Z,12988.00
2018-07-21T10:03:46.279Z,14068.00
2018-07-21T10:04:46.216Z,15832.00
2018-07-21T10:05:46.141Z,18016.00
2018-07-21T10:06:46.079Z,20704.00
2018-07-21T10:07:46.016Z,19776.00
2018-07-21T10:08:45.943Z,16312.00
2018-07-21T10:09:45.881Z,13900.00
2018-07-21T10:10:45.819Z,13620.00
2018-07-21T10:11:45.746Z,12952.00
2018-07-21T10:12:45.684Z,12560.00
2018-07-21T10:13:45.617Z,12596.00
2018-07-21T10:14:45.542Z,13284.00
2018-07-21T10:15:45.481Z,13452.00
2018-07-21T10:16:45.419Z,13828.00
2018-07-21T10:17:45.348Z,13432.00
2018-07-21T10:18:45.287Z,13272.00
2018-07-21T10:19:45.220Z,13420.00
2018-07-21T10:20:45.144Z,13560.00
2018-07-21T10:21:45.135Z,13680.00
2018-07-21T10:22:45.011Z,13952.00
2018-07-21T10:23:44.945Z,14068.00
2018-07-21T10:24:44.884Z,14140.00
2018-07-21T10:25:44.812Z,14176.00
2018-07-21T10:26:44.743Z,14208.00
2018-07-21T10:27:44.682Z,14364.00
2018-07-21T10:28:44.610Z,14504.00
2018-07-21T10:29:44.546Z,14468.00
2018-07-21T10:30:44.485Z,14412.00
2018-07-21T10:31:44.409Z,14360.00
2018-07-21T10:32:44.345Z,14300.00
2018-07-21T10:33:44.269Z,14288.00
2018-07-21T10:34:44.207Z,14404.00
2018-07-21T10:35:44.133Z,14440.00
2018-07-21T10:36:44.073Z,14304.00
2018-07-21T10:37:44.011Z,14016.00
2018-07-21T10:38:43.933Z,13996.00
2018-07-21T10:39:43.870Z,14048.00
2018-07-21T10:40:43.802Z,14164.00
2018-07-21T10:41:43.735Z,14256.00
2018-07-21T10:42:43.660Z,14524.00
2018-07-21T10:43:43.597Z,14856.00
2018-07-21T10:44:43.534Z,14848.00
2018-07-21T10:45:43.458Z,14656.00
2018-07-21T10:46:43.395Z,14292.00
2018-07-21T10:47:43.320Z,16048.00
2018-07-21T10:48:43.261Z,20480.00
2018-07-21T10:49:43.187Z,25280.00
2018-07-21T10:50:43.182Z,25792.00
2018-07-21T10:51:43.060Z,26592.00
2018-07-21T10:52:42.987Z,27264.00
2018-07-21T10:53:42.921Z,27616.00
2018-07-21T10:54:42.848Z,25728.00
2018-07-21T10:55:42.786Z,24576.00
2018-07-21T10:56:42.724Z,26912.00
2018-07-21T10:57:42.653Z,22240.00
2018-07-21T10:58:42.588Z,19008.00
2018-07-21T10:59:42.523Z,19296.00
2018-07-21T11:00:42.448Z,21856.00
2018-07-21T11:01:42.385Z,26848.00
2018-07-21T11:02:42.322Z,27520.00
2018-07-21T11:03:42.248Z,28032.00
2018-07-21T11:04:42.189Z,21504.00
2018-07-21T11:05:42.125Z,16480.00
2018-07-21T11:06:42.051Z,15360.00
2018-07-21T11:07:41.988Z,16144.00
2018-07-21T11:08:41.925Z,16472.00
2018-07-21T11:09:41.863Z,22272.00
2018-07-21T11:10:41.789Z,22304.00
2018-07-21T11:11:41.727Z,20864.00
2018-07-21T11:12:41.661Z,20992.00
2018-07-21T11:13:41.587Z,19808.00
2018-07-21T11:14:41.523Z,18144.00
2018-07-21T11:15:41.462Z,17760.00
2018-07-21T11:16:41.401Z,18464.00
2018-07-21T11:17:41.328Z,18944.00
2018-07-21T11:18:41.265Z,20512.00
2018-07-21T11:19:41.204Z,22272.00
2018-07-21T11:20:41.124Z,21120.00
2018-07-21T11:21:41.064Z,19424.00
2018-07-21T11:22:40.999Z,17056.00
2018-07-21T11:23:40.928Z,16388.00
2018-07-21T11:24:40.863Z,15536.00
2018-07-21T11:25:40.800Z,15208.00
2018-07-21T11:26:40.725Z,15244.00
2018-07-21T11:27:40.664Z,15576.00
2018-07-21T11:28:40.615Z,17152.00
2018-07-21T11:29:40.527Z,18080.00
2018-07-21T11:30:40.466Z,19200.00
2018-07-21T11:31:40.416Z,19616.00
2018-07-21T11:32:40.325Z,19968.00
2018-07-21T11:33:40.266Z,22080.00
2018-07-21T11:34:40.204Z,21888.00
2018-07-21T11:35:40.321Z,22912.00
2018-07-21T11:36:40.068Z,24928.00
2018-07-21T11:37:39.991Z,32128.00
2018-07-21T11:38:39.931Z,38368.00
2018-07-21T11:39:39.866Z,42272.00
2018-07-21T11:40:39.791Z,43136.00
2018-07-21T11:41:39.729Z,46080.00
2018-07-21T11:42:39.655Z,47744.00
2018-07-21T11:43:39.592Z,49216.00
2018-07-21T11:44:39.577Z,48448.00
2018-07-21T11:45:39.465Z,51104.00
2018-07-21T11:46:39.391Z,50176.00
2018-07-21T11:47:39.327Z,52928.00
2018-07-21T11:48:39.267Z,47616.00
2018-07-21T11:49:39.194Z,49024.00
2018-07-21T11:50:39.130Z,49920.00
2018-07-21T11:51:39.069Z,48640.00
2018-07-21T11:52:39.019Z,52128.00
2018-07-21T11:53:38.940Z,53152.00
2018-07-21T11:54:38.867Z,49056.00
2018-07-21T11:55:38.803Z,38752.00
2018-07-21T11:56:38.742Z,39040.00
2018-07-21T11:57:38.677Z,43200.00
2018-07-21T11:58:38.616Z,46848.00
2018-07-21T11:59:38.554Z,48384.00
2018-07-21T12:00:38.481Z,50656.00
2018-07-21T12:01:38.419Z,48960.00
2018-07-21T12:02:38.358Z,45984.00
2018-07-21T12:03:38.294Z,41088.00
2018-07-21T12:04:38.233Z,37184.00
2018-07-21T12:05:38.219Z,36576.00
2018-07-21T12:06:38.111Z,39456.00
2018-07-21T12:07:38.030Z,38912.00
2018-07-21T12:08:37.969Z,33696.00
2018-07-21T12:09:37.906Z,30112.00
2018-07-21T12:10:37.845Z,27168.00
2018-07-21T12:11:37.781Z,27072.00
2018-07-21T12:12:37.720Z,29408.00
2018-07-21T12:13:37.715Z,31584.00
2018-07-21T12:14:37.583Z,40032.00